Historyczne dane pomiarowe

Dodano dane terminowe – wersja testowa.

Dane z okresu 1951-2019

Wersja bazy: 1.34 [2019-03-16, lista zmian], aktualizacja planowana na 2019-04-15

Dane meteo z obszaru Polski uzyskane na podstawie danych udostępnionych przez Instytut Meteorologii i Gospodarki Wodnej – Państwowy Instytut Badawczy.

 

Wybierz Datę:    

       

TemperaturaWilgotnośćWiatrCiśnienieOpadyŚniegCzas trwania zjawisk
 Stacja t tx tn tng RH VA  wxwx mslp ppp RRR   cm mm wxwxwxwxwxwxwx
1983-08-14 14.1 18.7 9.6 8.5 74.3- 4.7 2.7---- 0.0------------
1983-08-13 14.2 20.4 12.6 11.5 89.3- 8.0 4.0---- 5.5------------
1983-08-12 20.1 27.1 16.3 15.2 71.3- 5.0 2.0---- 0.8------------
1983-08-11 19.8 24.7 15.4 13.6 82.3- 8.0 2.0---- 0.2------------
1983-08-10 19.0 25.5 13.4 11.0 84.0- 4.3 1.7---- 2.0------------
1983-08-09 20.6 26.5 14.0 13.7 76.3- 4.7 1.3---- 0.0------------
1983-08-08 18.7 26.7 14.4 13.1 87.5- 7.3 2.0---- 0.9------------
1983-08-07 19.6 26.4 15.3 14.7 82.0- 7.3 2.0---- 15.5------------
1983-08-06 16.1 22.4 8.3 7.1 77.0- 5.7 2.3---- 4.0------------
1983-08-05 13.6 17.4 10.7 10.6 85.5- 8.0 1.7---- 0.0------------
1983-08-04 14.7 22.3 12.4 12.1 87.3- 8.0 3.0---- 6.5------------
1983-08-03 21.6 28.2 16.2 15.5 78.0- 6.0 2.7---- 0.0------------
1983-08-02 21.0 28.3 13.0 11.0 69.0- 3.3 3.7---- 0.0------------
1983-08-01 20.0 26.3 10.5 8.3 68.3- 0.7 3.0---- 0.0------------
1983-07-31 17.5 24.0 10.2 9.3 69.5- 2.3 2.0---- 0.0------------
1983-07-30 17.2 20.3 15.1 12.7 78.8- 8.0 4.7---- 0.0------------
1983-07-29 18.2 24.2 13.4 11.6 73.8- 6.0 2.7---- 0.0------------
1983-07-28 21.6 25.7 16.8 16.7 79.5- 7.0 2.3---- 0.0------------
1983-07-27 22.0 30.1 15.2 12.8 69.0- 2.0 1.0---- 5.4------------
1983-07-26 19.6 27.8 13.0 11.6 81.5- 5.0 2.0---- 0.0------------
1983-07-25 13.8 17.2 7.3 5.8 85.8- 7.3 3.7---- 0.0------------
1983-07-24 15.0 18.6 8.6 7.8 83.5- 7.3 1.3---- 0.2------------
1983-07-23 14.9 20.5 10.4 9.3 81.0- 7.3 3.0---- 1.4------------
1983-07-22 13.9 18.9 9.6 8.5 74.0- 7.3 3.3---- 1.6------------
1983-07-21 12.3 17.1 7.5 6.2 78.3- 7.7 3.7---- 0.0------------
1983-07-20 15.5 23.4 11.6 11.4 84.0- 5.7 2.7---- 8.0------------
1983-07-19 21.6 27.2 16.1 15.1 68.8- 7.3 3.7---- 2.3------------
1983-07-18 20.0 27.9 8.2 7.1 63.8- 1.7 1.3---- 0.0------------
1983-07-17 19.7 24.2 10.6 10.4 71.8- 1.7 1.7---- 0.0------------
1983-07-16 21.2 28.3 10.8 10.6 68.8- 4.3 1.7---- 0.0------------
1983-07-15 18.7 25.3 11.0 10.6 68.5- 1.0 2.3---- 0.0------------
1983-07-14 19.9 24.0 16.3 15.3 85.0- 8.0 1.0---- 0.0------------
1983-07-13 20.1 25.6 15.2 13.8 80.0- 5.7 1.3---- 0.0------------
1983-07-12 18.9 23.3 15.6 15.5 83.8- 6.7 2.0---- 0.0------------
1983-07-11 20.8 26.6 16.4 15.4 79.5- 6.7 2.3---- 11.9------------
1983-07-10 21.7 28.1 14.8 13.3 67.8- 3.7 2.0---- 0.0------------
1983-07-09 21.1 27.2 12.8 11.6 65.8- 2.0 1.7---- 0.0------------
1983-07-08 18.4 25.8 8.5 7.5 67.0- 1.7 1.3---- 0.0------------
1983-07-07 19.1 25.6 10.2 9.9 60.5- 0.0 2.0---- 0.0------------
1983-07-06 19.2 26.4 9.7 8.6 66.8- 1.0 0.7---- 0.0------------
1983-07-05 18.4 23.6 13.0 11.6 70.5- 1.3 1.3---- 0.0------------
1983-07-04 18.8 25.8 9.5 9.1 66.0- 2.0 1.7---- 0.0------------
1983-07-03 17.8 23.7 9.4 8.6 68.8- 0.3 2.0---- 0.0------------
1983-07-02 18.1 23.2 12.7 11.1 86.0- 1.3 3.0---- 0.0------------
1983-07-01 19.8 26.1 11.4 10.1 76.0- 2.3 2.7---- 0.0------------
1983-06-30 16.2 22.5 6.5 5.6 66.0- 1.3 2.0---- 0.0------------
1983-06-29 14.0 19.5 6.7 5.6 70.8- 2.0 1.7---- 0.0------------
1983-06-28 16.5 19.9 14.5 13.1 87.0- 7.7 2.7---- 8.1------------
1983-06-27 18.7 25.8 13.0 10.4 83.5- 4.0 2.7---- 1.4------------
1983-06-26 19.7 24.4 15.5 14.4 64.5- 0.3 2.7---- 0.0------------
1983-06-25 21.2 28.6 8.5 7.6 64.0- 1.7 4.7---- 0.0------------
1983-06-24 18.2 25.1 8.7 6.2 56.3- 1.0 1.7---- 0.0------------
1983-06-23 13.8 21.0 3.5 1.6 61.5- 0.0 1.7---- 0.0------------
1983-06-22 12.3 18.1 5.5 3.7 66.0- 0.7 2.3---- 0.0------------
1983-06-21 17.2 23.5 12.2 9.4 73.8- 2.3 2.7---- 0.0------------
1983-06-20 18.5 23.4 13.2 11.7 77.3- 4.3 1.3---- 0.0------------
1983-06-19 16.4 20.3 14.0 13.3 90.8- 8.0 2.3---- 7.5------------
1983-06-18 14.2 16.5 11.2 10.7 86.8- 8.0 2.7---- 1.2------------
1983-06-17 12.4 17.7 5.9 3.8 81.3- 7.7 2.7---- 0.0------------
1983-06-16 12.6 15.7 10.0 10.5 87.0- 7.3 4.7---- 1.1------------
304.3 ms

 

Źródłem pochodzenia danych jest Instytut Meteorologii i Gospodarki Wodnej – Państwowy Instytut Badawczy. Dane Instytutu Meteorologii i Gospodarki Wodnej – Państwowego Instytutu Badawczego zostały przetworzone.

Dane źródłowe można odnaleźć na stronie https://dane.imgw.pl